sensor_id;sensor_type;location;lat;lon;timestamp;pressure;altitude;pressure_sealevel;temperature;humidity
56334;BME280;42240;53.626;55.886;2023-04-04T00:00:49;77233.13;;;-145.10;78.96
56334;BME280;42240;53.626;55.886;2023-04-04T00:02:22;77209.38;;;-145.10;80.71
56334;BME280;42240;53.626;55.886;2023-04-04T00:03:55;77181.69;;;-145.10;80.24
56334;BME280;42240;53.626;55.886;2023-04-04T00:05:29;77175.78;;;-145.10;80.17
56334;BME280;42240;53.626;55.886;2023-04-04T00:07:01;77161.94;;;-145.10;79.61
56334;BME280;42240;53.626;55.886;2023-04-04T00:08:34;77161.94;;;-145.10;79.31
56334;BME280;42240;53.626;55.886;2023-04-04T00:10:07;77154.00;;;-145.10;78.89
56334;BME280;42240;53.626;55.886;2023-04-04T00:11:40;77154.00;;;-145.10;78.96
56334;BME280;42240;53.626;55.886;2023-04-04T00:13:13;77154.00;;;-145.10;78.16
56334;BME280;42240;53.626;55.886;2023-04-04T00:14:47;77148.09;;;-145.10;76.81
56334;BME280;42240;53.626;55.886;2023-04-04T00:16:19;77148.09;;;-145.10;76.70
56334;BME280;42240;53.626;55.886;2023-04-04T00:17:53;77144.13;;;-145.10;77.21
56334;BME280;42240;53.626;55.886;2023-04-04T00:19:26;77132.25;;;-145.10;76.65
56334;BME280;42240;53.626;55.886;2023-04-04T00:20:59;77134.25;;;-145.10;76.65
56334;BME280;42240;53.626;55.886;2023-04-04T00:22:32;77118.41;;;-145.10;77.46
56334;BME280;42240;53.626;55.886;2023-04-04T00:24:05;77114.47;;;-145.10;76.75
56334;BME280;42240;53.626;55.886;2023-04-04T00:25:37;77114.47;;;-145.10;76.81
56334;BME280;42240;53.626;55.886;2023-04-04T00:27:10;77114.47;;;-145.10;76.65
56334;BME280;42240;53.626;55.886;2023-04-04T00:28:43;77114.47;;;-145.10;76.90
56334;BME280;42240;53.626;55.886;2023-04-04T00:30:16;77110.50;;;-145.10;77.46
56334;BME280;42240;53.626;55.886;2023-04-04T00:31:49;77104.56;;;-145.10;77.31
56334;BME280;42240;53.626;55.886;2023-04-04T00:33:23;77106.56;;;-145.10;77.01
56334;BME280;42240;53.626;55.886;2023-04-04T00:34:56;77126.31;;;-145.10;76.36
56334;BME280;42240;53.626;55.886;2023-04-04T00:36:29;77165.88;;;-145.10;75.67
56334;BME280;42240;53.626;55.886;2023-04-04T00:38:02;77179.72;;;-145.10;75.89
56334;BME280;42240;53.626;55.886;2023-04-04T00:39:35;77193.56;;;-145.10;74.84
56334;BME280;42240;53.626;55.886;2023-04-04T00:41:08;77211.38;;;-145.10;75.82
56334;BME280;42240;53.626;55.886;2023-04-04T00:42:41;77233.13;;;-145.10;77.09
56334;BME280;42240;53.626;55.886;2023-04-04T00:44:13;77239.06;;;-145.10;78.19
56334;BME280;42240;53.626;55.886;2023-04-04T00:45:46;77272.69;;;-145.10;77.69
56334;BME280;42240;53.626;55.886;2023-04-04T00:47:23;77288.50;;;-145.10;78.82
56334;BME280;42240;53.626;55.886;2023-04-04T00:48:57;77290.47;;;-145.10;80.47
56334;BME280;42240;53.626;55.886;2023-04-04T00:50:31;77284.53;;;-145.10;79.12
56334;BME280;42240;53.626;55.886;2023-04-04T00:52:05;77288.50;;;-145.10;79.67
56334;BME280;42240;53.626;55.886;2023-04-04T00:53:39;77296.41;;;-145.10;81.25
56334;BME280;42240;53.626;55.886;2023-04-04T00:55:12;77296.41;;;-145.10;80.79
56334;BME280;42240;53.626;55.886;2023-04-04T00:56:44;77298.38;;;-145.10;79.58
56334;BME280;42240;53.626;55.886;2023-04-04T00:58:18;77326.06;;;-145.10;78.93
56334;BME280;42240;53.626;55.886;2023-04-04T00:59:51;77328.06;;;-145.10;79.18
56334;BME280;42240;53.626;55.886;2023-04-04T01:01:23;77339.91;;;-145.10;81.25
56334;BME280;42240;53.626;55.886;2023-04-04T01:02:57;77353.75;;;-145.10;81.70
56334;BME280;42240;53.626;55.886;2023-04-04T01:04:30;77339.91;;;-145.10;81.67
56334;BME280;42240;53.626;55.886;2023-04-04T01:06:03;77347.81;;;-145.10;81.04
56334;BME280;42240;53.626;55.886;2023-04-04T01:07:36;77359.69;;;-145.10;82.69
56334;BME280;42240;53.626;55.886;2023-04-04T01:09:09;77359.69;;;-145.10;82.73
56334;BME280;42240;53.626;55.886;2023-04-04T01:10:43;77359.69;;;-145.10;82.66
56334;BME280;42240;53.626;55.886;2023-04-04T01:12:16;77357.72;;;-145.10;81.11
56334;BME280;42240;53.626;55.886;2023-04-04T01:13:49;77361.69;;;-145.10;82.59
56334;BME280;42240;53.626;55.886;2023-04-04T01:15:22;77363.66;;;-145.10;82.82
56334;BME280;42240;53.626;55.886;2023-04-04T01:16:55;77371.56;;;-145.10;83.54
56334;BME280;42240;53.626;55.886;2023-04-04T01:18:32;77375.53;;;-145.10;84.41
56334;BME280;42240;53.626;55.886;2023-04-04T01:20:06;77373.53;;;-145.10;84.86
56334;BME280;42240;53.626;55.886;2023-04-04T01:21:46;77365.63;;;-145.10;84.09
56334;BME280;42240;53.626;55.886;2023-04-04T01:23:20;77361.69;;;-145.10;84.26
56334;BME280;42240;53.626;55.886;2023-04-04T01:24:54;77357.72;;;-145.10;84.55
56334;BME280;42240;53.626;55.886;2023-04-04T01:26:29;77349.81;;;-145.10;84.46
56334;BME280;42240;53.626;55.886;2023-04-04T01:28:05;77343.88;;;-145.10;84.74
56334;BME280;42240;53.626;55.886;2023-04-04T01:29:38;77339.91;;;-145.10;84.48
56334;BME280;42240;53.626;55.886;2023-04-04T01:31:11;77335.97;;;-145.10;84.97
56334;BME280;42240;53.626;55.886;2023-04-04T01:34:26;77381.44;;;-145.10;85.25
56334;BME280;42240;53.626;55.886;2023-04-04T01:37:58;77308.28;;;-145.10;84.74
56334;BME280;42240;53.626;55.886;2023-04-04T01:39:35;77306.28;;;-145.10;84.75
56334;BME280;42240;53.626;55.886;2023-04-04T01:41:12;77318.16;;;-145.10;84.83
56334;BME280;42240;53.626;55.886;2023-04-04T01:42:54;77339.91;;;-145.10;83.87
56334;BME280;42240;53.626;55.886;2023-04-04T01:44:28;77365.63;;;-145.10;84.97
56334;BME280;42240;53.626;55.886;2023-04-04T01:46:01;77361.69;;;-145.10;84.88
56334;BME280;42240;53.626;55.886;2023-04-04T01:47:38;77351.78;;;-145.10;85.18
56334;BME280;42240;53.626;55.886;2023-04-04T01:49:13;77345.84;;;-145.10;85.54
56334;BME280;42240;53.626;55.886;2023-04-04T01:50:45;77343.88;;;-145.10;85.87
56334;BME280;42240;53.626;55.886;2023-04-04T01:52:18;77334.00;;;-145.10;85.46
56334;BME280;42240;53.626;55.886;2023-04-04T01:53:51;77328.06;;;-145.10;85.80
56334;BME280;42240;53.626;55.886;2023-04-04T01:55:24;77339.91;;;-145.10;85.85
56334;BME280;42240;53.626;55.886;2023-04-04T01:56:57;77334.00;;;-145.10;85.68
56334;BME280;42240;53.626;55.886;2023-04-04T01:58:30;77324.09;;;-145.10;85.30
56334;BME280;42240;53.626;55.886;2023-04-04T02:00:03;77320.13;;;-145.10;84.76
56334;BME280;42240;53.626;55.886;2023-04-04T02:01:46;77310.25;;;-145.10;84.43
56334;BME280;42240;53.626;55.886;2023-04-04T02:03:19;77300.38;;;-145.10;84.43
56334;BME280;42240;53.626;55.886;2023-04-04T02:04:52;77286.53;;;-145.10;84.17
56334;BME280;42240;53.626;55.886;2023-04-04T02:06:25;77278.59;;;-145.10;83.64
56334;BME280;42240;53.626;55.886;2023-04-04T02:07:58;77264.75;;;-145.10;83.51
56334;BME280;42240;53.626;55.886;2023-04-04T02:09:41;77260.81;;;-145.10;83.00
56334;BME280;42240;53.626;55.886;2023-04-04T02:11:15;77245.00;;;-145.10;82.74
56334;BME280;42240;53.626;55.886;2023-04-04T02:12:48;77245.00;;;-145.10;81.44
56334;BME280;42240;53.626;55.886;2023-04-04T02:14:20;77237.06;;;-145.10;80.88
56334;BME280;42240;53.626;55.886;2023-04-04T02:16:13;77221.25;;;-145.10;80.43
56334;BME280;42240;53.626;55.886;2023-04-04T02:17:47;77217.31;;;-145.10;79.64
56334;BME280;42240;53.626;55.886;2023-04-04T02:19:20;77203.47;;;-145.10;79.30
56334;BME280;42240;53.626;55.886;2023-04-04T02:20:56;77197.53;;;-145.10;77.78
56334;BME280;42240;53.626;55.886;2023-04-04T02:22:29;77173.78;;;-145.10;77.06
56334;BME280;42240;53.626;55.886;2023-04-04T02:24:02;77102.59;;;-145.10;75.11
56334;BME280;42240;53.626;55.886;2023-04-04T02:25:34;76972.06;;;-145.10;71.68
56334;BME280;42240;53.626;55.886;2023-04-04T02:27:07;76823.75;;;-145.10;66.39
56334;BME280;42240;53.626;55.886;2023-04-04T02:28:40;76691.25;;;-145.10;61.06
56334;BME280;42240;53.626;55.886;2023-04-04T02:30:14;76588.44;;;-145.10;56.36
56334;BME280;42240;53.626;55.886;2023-04-04T02:31:47;76542.97;;;-145.10;53.47
56334;BME280;42240;53.626;55.886;2023-04-04T02:33:25;76550.88;;;-145.10;51.00
56334;BME280;42240;53.626;55.886;2023-04-04T02:34:59;76580.53;;;-145.10;50.89
56334;BME280;42240;53.626;55.886;2023-04-04T02:36:31;76521.22;;;-145.10;49.89
56334;BME280;42240;53.626;55.886;2023-04-04T02:38:04;76422.34;;;-145.10;48.63
56334;BME280;42240;53.626;55.886;2023-04-04T02:39:45;76297.78;;;-145.10;46.41
56334;BME280;42240;53.626;55.886;2023-04-04T02:41:20;76212.75;;;-145.10;44.04
56334;BME280;42240;53.626;55.886;2023-04-04T02:42:53;76125.75;;;-145.10;42.28
56334;BME280;42240;53.626;55.886;2023-04-04T02:44:26;76048.66;;;-145.10;42.48
56334;BME280;42240;53.626;55.886;2023-04-04T02:45:59;76042.72;;;-145.10;42.22
56334;BME280;42240;53.626;55.886;2023-04-04T02:47:50;75997.25;;;-145.10;41.73
56334;BME280;42240;53.626;55.886;2023-04-04T02:49:27;75904.31;;;-145.10;41.17
56334;BME280;42240;53.626;55.886;2023-04-04T02:51:01;75862.81;;;-145.10;39.34
56334;BME280;42240;53.626;55.886;2023-04-04T02:52:35;75902.34;;;-145.10;38.41
56334;BME280;42240;53.626;55.886;2023-04-04T02:54:13;75870.72;;;-145.10;38.32
56334;BME280;42240;53.626;55.886;2023-04-04T02:55:49;75856.88;;;-145.10;38.25
56334;BME280;42240;53.626;55.886;2023-04-04T02:57:22;75837.09;;;-145.10;38.82
56334;BME280;42240;53.626;55.886;2023-04-04T02:58:55;75825.25;;;-145.10;38.17
56334;BME280;42240;53.626;55.886;2023-04-04T03:00:28;75841.06;;;-145.10;37.73
56334;BME280;42240;53.626;55.886;2023-04-04T03:02:01;75854.91;;;-145.10;37.81
56334;BME280;42240;53.626;55.886;2023-04-04T03:03:35;75890.47;;;-145.10;38.11
56334;BME280;42240;53.626;55.886;2023-04-04T03:05:08;75922.13;;;-145.10;38.50
56334;BME280;42240;53.626;55.886;2023-04-04T03:06:40;75930.03;;;-145.10;38.48
56334;BME280;42240;53.626;55.886;2023-04-04T03:08:13;75935.94;;;-145.10;38.50
56334;BME280;42240;53.626;55.886;2023-04-04T03:09:46;75845.00;;;-145.10;38.92
56334;BME280;42240;53.626;55.886;2023-04-04T03:11:19;75821.28;;;-145.10;38.66
56334;BME280;42240;53.626;55.886;2023-04-04T03:12:55;75752.09;;;-145.10;37.95
56334;BME280;42240;53.626;55.886;2023-04-04T03:14:29;75738.25;;;-145.10;37.24
56334;BME280;42240;53.626;55.886;2023-04-04T03:16:03;75665.09;;;-145.10;36.92
56334;BME280;42240;53.626;55.886;2023-04-04T03:17:50;75635.44;;;-145.10;36.46
56334;BME280;42240;53.626;55.886;2023-04-04T03:19:27;75588.00;;;-145.10;35.97
56334;BME280;42240;53.626;55.886;2023-04-04T03:21:00;75548.47;;;-145.10;35.90
56334;BME280;42240;53.626;55.886;2023-04-04T03:22:33;75459.50;;;-145.10;34.98
56334;BME280;42240;53.626;55.886;2023-04-04T03:24:06;75382.41;;;-145.10;34.45
56334;BME280;42240;53.626;55.886;2023-04-04T03:25:39;75327.06;;;-145.10;33.09
56334;BME280;42240;53.626;55.886;2023-04-04T03:27:12;75249.97;;;-145.10;31.79
56334;BME280;42240;53.626;55.886;2023-04-04T03:28:45;75208.47;;;-145.10;32.45
56334;BME280;42240;53.626;55.886;2023-04-04T03:30:19;75161.00;;;-145.10;31.10
56334;BME280;42240;53.626;55.886;2023-04-04T03:31:52;75085.91;;;-145.10;30.45
56334;BME280;42240;53.626;55.886;2023-04-04T03:33:25;75141.25;;;-145.10;29.28
56334;BME280;42240;53.626;55.886;2023-04-04T03:34:58;75125.44;;;-145.10;29.48
56334;BME280;42240;53.626;55.886;2023-04-04T03:36:31;75117.53;;;-145.10;28.98
56334;BME280;42240;53.626;55.886;2023-04-04T03:38:04;75091.84;;;-145.10;28.41
56334;BME280;42240;53.626;55.886;2023-04-04T03:39:37;75054.28;;;-145.10;28.80
56334;BME280;42240;53.626;55.886;2023-04-04T03:41:10;75068.09;;;-145.10;28.52
56334;BME280;42240;53.626;55.886;2023-04-04T03:42:42;75010.78;;;-145.10;28.00
56334;BME280;42240;53.626;55.886;2023-04-04T03:44:18;75137.28;;;-145.10;27.81
56334;BME280;42240;53.626;55.886;2023-04-04T03:45:51;75050.31;;;-145.10;27.69
56334;BME280;42240;53.626;55.886;2023-04-04T03:47:25;75068.09;;;-145.10;27.64
56334;BME280;42240;53.626;55.886;2023-04-04T03:48:58;75014.75;;;-145.10;27.42
56334;BME280;42240;53.626;55.886;2023-04-04T03:50:31;74911.97;;;-145.10;27.24
56334;BME280;42240;53.626;55.886;2023-04-04T03:52:04;74957.41;;;-145.10;26.91
56334;BME280;42240;53.626;55.886;2023-04-04T03:53:38;74943.59;;;-145.10;27.32
56334;BME280;42240;53.626;55.886;2023-04-04T03:55:10;74935.69;;;-145.10;26.65
56334;BME280;42240;53.626;55.886;2023-04-04T03:56:43;74963.34;;;-145.10;26.60
56334;BME280;42240;53.626;55.886;2023-04-04T03:58:16;75016.72;;;-145.10;26.94
56334;BME280;42240;53.626;55.886;2023-04-04T03:59:49;75076.00;;;-145.10;26.82
56334;BME280;42240;53.626;55.886;2023-04-04T04:01:25;75078.00;;;-145.10;27.26
56334;BME280;42240;53.626;55.886;2023-04-04T04:02:58;75028.56;;;-145.10;27.07
56334;BME280;42240;53.626;55.886;2023-04-04T04:04:31;74908.00;;;-145.10;26.29
56334;BME280;42240;53.626;55.886;2023-04-04T04:06:04;74908.00;;;-145.10;26.61
56334;BME280;42240;53.626;55.886;2023-04-04T04:07:37;74813.13;;;-145.10;26.38
56334;BME280;42240;53.626;55.886;2023-04-04T04:09:11;74888.25;;;-145.10;25.88
56334;BME280;42240;53.626;55.886;2023-04-04T04:10:44;74896.16;;;-145.10;26.22
56334;BME280;42240;53.626;55.886;2023-04-04T04:12:17;74819.06;;;-145.10;26.04
56334;BME280;42240;53.626;55.886;2023-04-04T04:13:49;74876.38;;;-145.10;26.01
56334;BME280;42240;53.626;55.886;2023-04-04T04:15:22;74872.44;;;-145.10;25.79
56334;BME280;42240;53.626;55.886;2023-04-04T04:16:55;74919.88;;;-145.10;26.05
56334;BME280;42240;53.626;55.886;2023-04-04T04:18:28;74874.41;;;-145.10;25.94
56334;BME280;42240;53.626;55.886;2023-04-04T04:20:02;74844.75;;;-145.10;25.64
56334;BME280;42240;53.626;55.886;2023-04-04T04:21:41;74761.75;;;-145.10;25.42
56334;BME280;42240;53.626;55.886;2023-04-04T04:23:15;74749.88;;;-145.10;25.74
56334;BME280;42240;53.626;55.886;2023-04-04T04:24:52;74801.28;;;-145.10;25.54
56334;BME280;42240;53.626;55.886;2023-04-04T04:26:25;74777.56;;;-145.10;25.80
56334;BME280;42240;53.626;55.886;2023-04-04T04:27:58;74710.34;;;-145.10;25.31
56334;BME280;42240;53.626;55.886;2023-04-04T04:29:31;74666.88;;;-145.10;24.47
56334;BME280;42240;53.626;55.886;2023-04-04T04:31:07;74666.88;;;-145.10;24.66
56334;BME280;42240;53.626;55.886;2023-04-04T04:32:47;74573.97;;;-145.10;24.63
56334;BME280;42240;53.626;55.886;2023-04-04T04:34:24;74489.00;;;-145.10;24.11
56334;BME280;42240;53.626;55.886;2023-04-04T04:36:02;74512.72;;;-145.10;23.72
56334;BME280;42240;53.626;55.886;2023-04-04T04:37:46;74564.09;;;-145.10;23.51
56334;BME280;42240;53.626;55.886;2023-04-04T04:39:20;74508.75;;;-145.10;23.34
56334;BME280;42240;53.626;55.886;2023-04-04T04:41:05;74542.34;;;-145.10;23.18
56334;BME280;42240;53.626;55.886;2023-04-04T04:42:45;74643.16;;;-145.10;23.39
56334;BME280;42240;53.626;55.886;2023-04-04T04:44:22;74520.63;;;-145.10;23.37
56334;BME280;42240;53.626;55.886;2023-04-04T04:45:55;74564.09;;;-145.10;23.51
56334;BME280;42240;53.626;55.886;2023-04-04T04:47:29;74485.03;;;-145.10;23.21
56334;BME280;42240;53.626;55.886;2023-04-04T04:49:05;74544.34;;;-145.10;23.07
56334;BME280;42240;53.626;55.886;2023-04-04T04:50:37;74595.72;;;-145.10;23.48
56334;BME280;42240;53.626;55.886;2023-04-04T04:52:13;74506.78;;;-145.10;22.99
56334;BME280;42240;53.626;55.886;2023-04-04T04:53:47;74524.56;;;-145.10;22.93
56334;BME280;42240;53.626;55.886;2023-04-04T04:55:20;74435.63;;;-145.10;22.82
56334;BME280;42240;53.626;55.886;2023-04-04T04:57:04;74386.22;;;-145.10;22.52
56334;BME280;42240;53.626;55.886;2023-04-04T04:58:43;74338.78;;;-145.10;22.88
56334;BME280;42240;53.626;55.886;2023-04-04T05:00:23;74299.28;;;-145.10;22.34
56334;BME280;42240;53.626;55.886;2023-04-04T05:01:57;74289.38;;;-145.10;22.37
56334;BME280;42240;53.626;55.886;2023-04-04T05:03:30;74299.28;;;-145.10;22.25
56334;BME280;42240;53.626;55.886;2023-04-04T05:05:03;74382.28;;;-145.10;22.35
56334;BME280;42240;53.626;55.886;2023-04-04T05:06:39;74356.59;;;-145.10;22.10
56334;BME280;42240;53.626;55.886;2023-04-04T05:08:15;74311.13;;;-145.10;22.33
56334;BME280;42240;53.626;55.886;2023-04-04T05:10:11;74362.50;;;-145.10;22.26
56334;BME280;42240;53.626;55.886;2023-04-04T05:11:44;74398.09;;;-145.10;22.76
56334;BME280;42240;53.626;55.886;2023-04-04T05:13:19;74409.94;;;-145.10;22.49
56334;BME280;42240;53.626;55.886;2023-04-04T05:14:52;74390.19;;;-145.10;22.64
56334;BME280;42240;53.626;55.886;2023-04-04T05:16:25;74358.56;;;-145.10;22.49
56334;BME280;42240;53.626;55.886;2023-04-04T05:18:01;74459.34;;;-145.10;22.65
56334;BME280;42240;53.626;55.886;2023-04-04T05:19:34;74441.56;;;-145.10;22.80
56334;BME280;42240;53.626;55.886;2023-04-04T05:21:07;74461.31;;;-145.10;22.86
56334;BME280;42240;53.626;55.886;2023-04-04T05:22:43;74453.41;;;-145.10;22.86
56334;BME280;42240;53.626;55.886;2023-04-04T05:24:18;74469.22;;;-145.10;22.61
56334;BME280;42240;53.626;55.886;2023-04-04T05:25:51;74342.75;;;-145.10;22.25
56334;BME280;42240;53.626;55.886;2023-04-04T05:27:26;74236.03;;;-145.10;22.47
56334;BME280;42240;53.626;55.886;2023-04-04T05:29:03;74226.16;;;-145.10;22.17
56334;BME280;42240;53.626;55.886;2023-04-04T05:30:36;74228.13;;;-145.10;21.75
56334;BME280;42240;53.626;55.886;2023-04-04T05:32:15;74285.44;;;-145.10;21.99
56334;BME280;42240;53.626;55.886;2023-04-04T05:33:56;74279.50;;;-145.10;22.02
56334;BME280;42240;53.626;55.886;2023-04-04T05:35:36;74287.41;;;-145.10;21.79
56334;BME280;42240;53.626;55.886;2023-04-04T05:37:09;74251.84;;;-145.10;21.55
56334;BME280;42240;53.626;55.886;2023-04-04T05:38:43;74281.47;;;-145.10;21.70
56334;BME280;42240;53.626;55.886;2023-04-04T05:40:15;74247.88;;;-145.10;21.42
56334;BME280;42240;53.626;55.886;2023-04-04T05:41:54;74228.13;;;-145.10;21.37
56334;BME280;42240;53.626;55.886;2023-04-04T05:43:27;74324.97;;;-145.10;22.02
56334;BME280;42240;53.626;55.886;2023-04-04T05:45:13;74352.63;;;-145.10;22.08
56334;BME280;42240;53.626;55.886;2023-04-04T05:46:45;74295.31;;;-145.10;21.81
56334;BME280;42240;53.626;55.886;2023-04-04T05:48:18;74467.25;;;-145.10;22.66
56334;BME280;42240;53.626;55.886;2023-04-04T05:49:53;74540.38;;;-145.10;22.85
56334;BME280;42240;53.626;55.886;2023-04-04T05:51:26;74336.81;;;-145.10;22.87
56334;BME280;42240;53.626;55.886;2023-04-04T05:53:16;74259.75;;;-145.10;21.90
56334;BME280;42240;53.626;55.886;2023-04-04T05:54:52;74259.75;;;-145.10;22.13
56334;BME280;42240;53.626;55.886;2023-04-04T05:56:32;74204.41;;;-145.10;21.86
56334;BME280;42240;53.626;55.886;2023-04-04T05:58:08;74273.59;;;-145.10;21.50
56334;BME280;42240;53.626;55.886;2023-04-04T05:59:52;74319.03;;;-145.10;21.71
56334;BME280;42240;53.626;55.886;2023-04-04T06:01:25;74299.28;;;-145.10;21.69
56334;BME280;42240;53.626;55.886;2023-04-04T06:03:02;74295.31;;;-145.10;22.01
56334;BME280;42240;53.626;55.886;2023-04-04T06:04:35;74324.97;;;-145.10;21.88
56334;BME280;42240;53.626;55.886;2023-04-04T06:06:10;74301.25;;;-145.10;21.70
56334;BME280;42240;53.626;55.886;2023-04-04T06:07:43;74311.13;;;-145.10;21.80
56334;BME280;42240;53.626;55.886;2023-04-04T06:09:16;74251.84;;;-145.10;21.62
56334;BME280;42240;53.626;55.886;2023-04-04T06:10:49;74162.91;;;-145.10;21.58
56334;BME280;42240;53.626;55.886;2023-04-04T06:12:21;74236.03;;;-145.10;21.09
56334;BME280;42240;53.626;55.886;2023-04-04T06:13:54;74194.53;;;-145.10;21.07
56334;BME280;42240;53.626;55.886;2023-04-04T06:15:29;74224.19;;;-145.10;21.25
56334;BME280;42240;53.626;55.886;2023-04-04T06:17:02;74277.53;;;-145.10;21.09
56334;BME280;42240;53.626;55.886;2023-04-04T06:18:35;74236.03;;;-145.10;21.30
56334;BME280;42240;53.626;55.886;2023-04-04T06:20:08;74194.53;;;-145.10;21.05
56334;BME280;42240;53.626;55.886;2023-04-04T06:21:41;74275.56;;;-145.10;21.31
56334;BME280;42240;53.626;55.886;2023-04-04T06:23:16;74259.75;;;-145.10;21.32
56334;BME280;42240;53.626;55.886;2023-04-04T06:24:51;74160.94;;;-145.10;20.92
56334;BME280;42240;53.626;55.886;2023-04-04T06:26:24;74255.78;;;-145.10;21.18
56334;BME280;42240;53.626;55.886;2023-04-04T06:27:58;74350.66;;;-145.10;21.47
56334;BME280;42240;53.626;55.886;2023-04-04T06:29:32;74368.44;;;-145.10;21.55
56334;BME280;42240;53.626;55.886;2023-04-04T06:31:06;74356.59;;;-145.10;21.43
56334;BME280;42240;53.626;55.886;2023-04-04T06:32:40;74384.25;;;-145.10;21.63
56334;BME280;42240;53.626;55.886;2023-04-04T06:34:15;74544.34;;;-145.10;21.93
56334;BME280;42240;53.626;55.886;2023-04-04T06:36:00;74492.94;;;-145.10;22.35
56334;BME280;42240;53.626;55.886;2023-04-04T06:37:32;74605.59;;;-145.10;22.64
56334;BME280;42240;53.626;55.886;2023-04-04T06:39:13;74611.53;;;-145.10;22.64
56334;BME280;42240;53.626;55.886;2023-04-04T06:40:48;74591.78;;;-145.10;22.91
56334;BME280;42240;53.626;55.886;2023-04-04T06:42:21;74655.00;;;-145.10;22.72
56334;BME280;42240;53.626;55.886;2023-04-04T06:43:56;74631.28;;;-145.10;22.99
56334;BME280;42240;53.626;55.886;2023-04-04T06:45:29;74605.59;;;-145.10;23.01
56334;BME280;42240;53.626;55.886;2023-04-04T06:47:04;74698.50;;;-145.10;22.53
56334;BME280;42240;53.626;55.886;2023-04-04T06:48:37;74740.00;;;-145.10;22.81
56334;BME280;42240;53.626;55.886;2023-04-04T06:50:10;74838.81;;;-145.10;23.02
56334;BME280;42240;53.626;55.886;2023-04-04T06:51:43;74773.59;;;-145.10;23.62
56334;BME280;42240;53.626;55.886;2023-04-04T06:53:16;74763.72;;;-145.10;23.21
56334;BME280;42240;53.626;55.886;2023-04-04T06:54:50;74862.53;;;-145.10;22.99
56334;BME280;42240;53.626;55.886;2023-04-04T06:56:23;74805.22;;;-145.10;23.12
56334;BME280;42240;53.626;55.886;2023-04-04T06:57:55;74836.84;;;-145.10;23.45
56334;BME280;42240;53.626;55.886;2023-04-04T06:59:28;74900.09;;;-145.10;23.06
56334;BME280;42240;53.626;55.886;2023-04-04T07:01:01;74888.25;;;-145.10;23.27
56334;BME280;42240;53.626;55.886;2023-04-04T07:02:34;74906.03;;;-145.10;22.86
56334;BME280;42240;53.626;55.886;2023-04-04T07:04:07;74919.88;;;-145.10;23.27
56334;BME280;42240;53.626;55.886;2023-04-04T07:05:39;74947.53;;;-145.10;23.16
56334;BME280;42240;53.626;55.886;2023-04-04T07:07:13;74983.13;;;-145.10;23.18
56334;BME280;42240;53.626;55.886;2023-04-04T07:08:45;75016.72;;;-145.10;23.69
56334;BME280;42240;53.626;55.886;2023-04-04T07:10:18;75014.75;;;-145.10;23.39
56334;BME280;42240;53.626;55.886;2023-04-04T07:11:51;74987.06;;;-145.10;23.44
56334;BME280;42240;53.626;55.886;2023-04-04T07:13:23;75002.88;;;-145.10;23.62
56334;BME280;42240;53.626;55.886;2023-04-04T07:14:56;75002.88;;;-145.10;23.45
56334;BME280;42240;53.626;55.886;2023-04-04T07:16:29;75014.75;;;-145.10;23.80
56334;BME280;42240;53.626;55.886;2023-04-04T07:18:02;75024.63;;;-145.10;23.77
56334;BME280;42240;53.626;55.886;2023-04-04T07:19:35;75024.63;;;-145.10;24.04
56334;BME280;42240;53.626;55.886;2023-04-04T07:21:08;75000.91;;;-145.10;23.92
56334;BME280;42240;53.626;55.886;2023-04-04T07:22:41;75016.72;;;-145.10;24.09
56334;BME280;42240;53.626;55.886;2023-04-04T07:24:15;75008.81;;;-145.10;24.11
56334;BME280;42240;53.626;55.886;2023-04-04T07:25:48;75018.69;;;-145.10;24.39
56334;BME280;42240;53.626;55.886;2023-04-04T07:27:21;74971.25;;;-145.10;24.13
56334;BME280;42240;53.626;55.886;2023-04-04T07:28:54;74983.13;;;-145.10;24.07
56334;BME280;42240;53.626;55.886;2023-04-04T07:30:26;74965.31;;;-145.10;24.22
56334;BME280;42240;53.626;55.886;2023-04-04T07:32:01;74945.56;;;-145.10;23.92
56334;BME280;42240;53.626;55.886;2023-04-04T07:33:34;74892.19;;;-145.10;24.02
56334;BME280;42240;53.626;55.886;2023-04-04T07:35:07;74941.59;;;-145.10;23.87
56334;BME280;42240;53.626;55.886;2023-04-04T07:36:40;74965.31;;;-145.10;24.00
56334;BME280;42240;53.626;55.886;2023-04-04T07:38:13;74957.41;;;-145.10;24.63
56334;BME280;42240;53.626;55.886;2023-04-04T07:39:46;74913.94;;;-145.10;24.29
56334;BME280;42240;53.626;55.886;2023-04-04T07:41:21;74941.59;;;-145.10;24.24
56334;BME280;42240;53.626;55.886;2023-04-04T07:42:53;74919.88;;;-145.10;24.62
56334;BME280;42240;53.626;55.886;2023-04-04T07:44:26;74864.53;;;-145.10;24.75
56334;BME280;42240;53.626;55.886;2023-04-04T07:45:59;74876.38;;;-145.10;24.11
56334;BME280;42240;53.626;55.886;2023-04-04T07:47:32;74947.53;;;-145.10;24.40
56334;BME280;42240;53.626;55.886;2023-04-04T07:49:05;74894.16;;;-145.10;24.45
56334;BME280;42240;53.626;55.886;2023-04-04T07:50:39;74840.81;;;-145.10;24.66
56334;BME280;42240;53.626;55.886;2023-04-04T07:52:12;74884.28;;;-145.10;24.78
56334;BME280;42240;53.626;55.886;2023-04-04T07:53:44;74975.22;;;-145.10;24.34
56334;BME280;42240;53.626;55.886;2023-04-04T07:55:17;74959.41;;;-145.10;24.26
56334;BME280;42240;53.626;55.886;2023-04-04T07:56:51;74919.88;;;-145.10;24.35
56334;BME280;42240;53.626;55.886;2023-04-04T07:58:24;74900.09;;;-145.10;24.30
56334;BME280;42240;53.626;55.886;2023-04-04T07:59:56;74902.06;;;-145.10;24.35
56334;BME280;42240;53.626;55.886;2023-04-04T08:01:29;74872.44;;;-145.10;23.90
56334;BME280;42240;53.626;55.886;2023-04-04T08:03:02;74900.09;;;-145.10;23.78
56334;BME280;42240;53.626;55.886;2023-04-04T08:04:35;74923.81;;;-145.10;23.84